Dry Branch, Georgia
Current Conditions -  °F | °C
As of 6:12 PM on Sunday 21 Dec 2014 (Local Time) from KMCN Reporting Station
Haze Haze  
Wind Chill: 50°   Ceiling: 1400
Heat Index: 50°   Visibility: 6mi
Dew Point: 48°   Wind: 9mph
Humidity: 94%   Direction: 70°ENE
Pressure: 30.11"   Gusts: NA
Location:  32.8°N, 83.5°W
Report Text: KMCN 212312Z 07008KT 6SM BR BKN014 OVC019 10/09 A3011 RMK AO2 $
Loading
Personal Weather Stations






























Interactive Weather Map New forecast layout! Learn more

10-Day Weather Forecast

Advertisements
Track Severe Weather on mobile